createdAt,value
2023-02-02T00:00:20.977Z,791.00
2023-02-02T00:01:20.960Z,788.00
2023-02-02T00:02:21.020Z,786.00
2023-02-02T00:03:20.937Z,783.00
2023-02-02T00:54:51.596Z,758.00
2023-02-02T00:55:52.568Z,760.00
2023-02-02T00:56:52.552Z,760.00
2023-02-02T00:57:52.549Z,761.00
2023-02-02T00:58:52.535Z,765.00
2023-02-02T00:59:52.527Z,764.00
2023-02-02T01:00:52.588Z,763.00
2023-02-02T01:01:52.579Z,760.00
2023-02-02T01:02:52.499Z,758.00
2023-02-02T01:03:52.497Z,755.00
2023-02-02T01:04:52.486Z,756.00
2023-02-02T01:05:52.481Z,756.00
2023-02-02T01:06:52.463Z,757.00
2023-02-02T01:07:52.454Z,757.00
2023-02-02T01:08:52.444Z,756.00
2023-02-02T01:09:52.444Z,752.00
2023-02-02T01:10:52.456Z,749.00
2023-02-02T01:11:52.421Z,749.00
2023-02-02T01:12:52.413Z,750.00
2023-02-02T01:13:52.401Z,753.00
2023-02-02T01:14:52.398Z,750.00
2023-02-02T01:15:52.386Z,746.00
2023-02-02T01:16:52.379Z,743.00
2023-02-02T01:17:52.369Z,741.00
2023-02-02T01:18:52.382Z,740.00
2023-02-02T01:19:52.359Z,740.00
2023-02-02T01:20:52.358Z,741.00
2023-02-02T01:21:52.336Z,739.00
2023-02-02T01:22:52.327Z,734.00
2023-02-02T01:23:52.321Z,735.00
2023-02-02T01:24:52.307Z,737.00
2023-02-02T01:25:52.319Z,738.00
2023-02-02T01:26:52.390Z,736.00
2023-02-02T01:27:52.277Z,736.00
2023-02-02T01:28:52.269Z,737.00
2023-02-02T01:29:52.289Z,737.00
2023-02-02T01:30:52.322Z,736.00
2023-02-02T01:31:52.322Z,738.00
2023-02-02T01:32:52.250Z,736.00
2023-02-02T01:33:52.234Z,737.00
2023-02-02T01:34:52.224Z,735.00
2023-02-02T01:35:52.216Z,737.00
2023-02-02T01:36:52.236Z,738.00
2023-02-02T01:37:52.206Z,738.00
2023-02-02T01:38:52.183Z,735.00
2023-02-02T01:39:52.192Z,735.00
2023-02-02T01:40:52.167Z,734.00
2023-02-02T01:41:52.166Z,728.00
2023-02-02T01:42:52.183Z,728.00
2023-02-02T01:43:52.147Z,728.00
2023-02-02T01:44:52.152Z,724.00
2023-02-02T01:45:52.160Z,724.00
2023-02-02T01:46:52.118Z,721.00
2023-02-02T01:47:52.113Z,721.00
2023-02-02T01:48:52.105Z,717.00
2023-02-02T01:49:52.092Z,718.00
2023-02-02T01:50:52.093Z,720.00
2023-02-02T01:51:52.083Z,720.00
2023-02-02T01:52:52.065Z,717.00
2023-02-02T01:53:52.063Z,718.00
2023-02-02T01:54:52.056Z,720.00
2023-02-02T01:55:52.052Z,718.00
2023-02-02T01:56:52.033Z,715.00
2023-02-02T01:57:52.033Z,713.00
2023-02-02T01:58:52.041Z,716.00
2023-02-02T01:59:52.011Z,716.00
2023-02-02T02:00:52.009Z,714.00
2023-02-02T02:01:51.986Z,716.00
2023-02-02T02:02:51.981Z,718.00
2023-02-02T02:03:51.971Z,719.00
2023-02-02T02:04:51.978Z,719.00
2023-02-02T02:05:52.031Z,718.00
2023-02-02T02:06:51.943Z,717.00
2023-02-02T02:07:51.940Z,716.00
2023-02-02T02:08:51.926Z,718.00
2023-02-02T02:09:51.928Z,721.00
2023-02-02T02:10:51.909Z,725.00
2023-02-02T02:11:51.901Z,723.00
2023-02-02T02:12:51.891Z,720.00
2023-02-02T02:13:51.879Z,719.00
2023-02-02T02:14:51.903Z,718.00
2023-02-02T02:15:51.869Z,713.00
2023-02-02T02:16:51.918Z,711.00
2023-02-02T02:17:51.848Z,715.00
2023-02-02T02:18:51.837Z,713.00
2023-02-02T02:19:51.843Z,714.00
2023-02-02T02:20:51.835Z,714.00
2023-02-02T02:21:51.815Z,713.00
2023-02-02T02:22:51.808Z,713.00
2023-02-02T02:23:51.808Z,713.00
2023-02-02T02:24:51.793Z,710.00
2023-02-02T02:25:51.778Z,705.00
2023-02-02T02:26:51.830Z,706.00
2023-02-02T02:27:51.755Z,705.00
2023-02-02T02:28:51.753Z,702.00
2023-02-02T02:29:51.740Z,703.00
2023-02-02T02:30:51.819Z,704.00
2023-02-02T02:31:51.876Z,703.00
2023-02-02T02:32:51.724Z,701.00
2023-02-02T02:33:51.710Z,698.00
2023-02-02T02:34:51.696Z,698.00
2023-02-02T02:35:51.693Z,696.00
2023-02-02T02:36:51.683Z,695.00
2023-02-02T02:37:51.679Z,693.00
2023-02-02T02:38:51.663Z,693.00
2023-02-02T02:39:51.659Z,694.00
2023-02-02T02:40:51.656Z,695.00
2023-02-02T02:41:51.637Z,699.00
2023-02-02T02:42:51.630Z,702.00
2023-02-02T02:43:51.618Z,702.00
2023-02-02T02:44:51.609Z,701.00
2023-02-02T02:45:51.655Z,700.00
2023-02-02T02:46:51.621Z,702.00
2023-02-02T02:47:51.582Z,701.00
2023-02-02T02:48:51.579Z,701.00
2023-02-02T02:49:51.563Z,700.00
2023-02-02T02:50:51.562Z,700.00
2023-02-02T02:51:51.561Z,700.00
2023-02-02T02:52:52.385Z,700.00
2023-02-02T02:53:51.543Z,697.00
2023-02-02T02:54:51.519Z,697.00
2023-02-02T02:55:51.519Z,697.00
2023-02-02T02:56:51.506Z,694.00
2023-02-02T02:57:51.495Z,692.00
2023-02-02T02:58:51.491Z,692.00
2023-02-02T02:59:51.485Z,696.00
2023-02-02T03:00:51.474Z,696.00
2023-02-02T03:01:51.512Z,695.00
2023-02-02T03:02:51.518Z,693.00
2023-02-02T03:03:51.445Z,688.00
2023-02-02T03:04:51.438Z,688.00
2023-02-02T03:05:51.423Z,693.00
2023-02-02T03:06:51.419Z,696.00
2023-02-02T03:07:51.411Z,695.00
2023-02-02T03:08:51.408Z,694.00
2023-02-02T03:09:51.397Z,691.00
2023-02-02T03:10:51.385Z,690.00
2023-02-02T03:11:51.375Z,691.00
2023-02-02T03:12:51.372Z,693.00
2023-02-02T03:13:51.362Z,693.00
2023-02-02T03:14:51.347Z,693.00
2023-02-02T03:15:51.362Z,691.00
2023-02-02T03:16:51.326Z,691.00
2023-02-02T03:17:51.318Z,691.00
2023-02-02T03:18:51.336Z,694.00
2023-02-02T03:19:51.305Z,696.00
2023-02-02T03:20:51.295Z,698.00
2023-02-02T03:21:51.291Z,697.00
2023-02-02T03:22:51.290Z,696.00
2023-02-02T03:23:51.268Z,693.00
2023-02-02T03:24:51.258Z,691.00
2023-02-02T03:25:51.250Z,691.00
2023-02-02T03:26:51.280Z,690.00
2023-02-02T03:27:51.242Z,691.00
2023-02-02T03:28:51.246Z,692.00
2023-02-02T03:29:51.242Z,696.00
2023-02-02T03:30:51.359Z,695.00
2023-02-02T03:31:51.199Z,691.00
2023-02-02T03:32:51.200Z,688.00
2023-02-02T03:33:50.179Z,690.00
2023-02-02T03:34:51.201Z,687.00
2023-02-02T03:35:51.165Z,687.00
2023-02-02T03:36:51.158Z,684.00
2023-02-02T03:37:51.158Z,684.00
2023-02-02T03:38:51.138Z,684.00
2023-02-02T03:39:52.311Z,683.00
2023-02-02T03:40:51.126Z,682.00
2023-02-02T03:41:51.115Z,682.00
2023-02-02T03:42:51.108Z,678.00
2023-02-02T03:43:51.105Z,680.00
2023-02-02T03:44:51.088Z,680.00
2023-02-02T03:45:51.085Z,680.00
2023-02-02T03:46:51.077Z,679.00
2023-02-02T03:47:51.063Z,682.00
2023-02-02T03:48:51.060Z,681.00
2023-02-02T03:49:51.046Z,683.00
2023-02-02T03:50:51.062Z,682.00
2023-02-02T03:51:51.031Z,684.00
2023-02-02T03:52:51.027Z,686.00
2023-02-02T03:53:51.013Z,680.00
2023-02-02T03:54:51.006Z,679.00
2023-02-02T03:55:51.008Z,678.00
2023-02-02T03:56:50.997Z,677.00
2023-02-02T03:57:50.978Z,678.00
2023-02-02T03:58:50.968Z,679.00
2023-02-02T03:59:50.974Z,681.00
2023-02-02T04:00:50.955Z,679.00
2023-02-02T04:01:50.964Z,678.00
2023-02-02T04:02:50.965Z,673.00
2023-02-02T04:03:50.935Z,668.00
2023-02-02T04:04:50.917Z,663.00
2023-02-02T04:05:50.917Z,660.00
2023-02-02T04:06:50.929Z,663.00
2023-02-02T04:07:50.900Z,664.00
2023-02-02T04:08:50.879Z,664.00
2023-02-02T04:09:50.870Z,668.00
2023-02-02T04:10:50.865Z,671.00
2023-02-02T04:11:50.856Z,673.00
2023-02-02T04:12:50.853Z,673.00
2023-02-02T04:13:50.844Z,676.00
2023-02-02T04:14:50.831Z,674.00
2023-02-02T04:15:50.834Z,676.00
2023-02-02T04:16:50.816Z,678.00
2023-02-02T04:17:50.808Z,676.00
2023-02-02T04:18:50.855Z,676.00
2023-02-02T04:19:50.785Z,676.00
2023-02-02T04:20:50.778Z,674.00
2023-02-02T04:21:50.779Z,677.00
2023-02-02T04:22:50.790Z,676.00
2023-02-02T04:23:50.752Z,673.00
2023-02-02T04:24:50.749Z,675.00
2023-02-02T04:25:50.728Z,678.00
2023-02-02T04:26:50.826Z,677.00
2023-02-02T04:27:50.721Z,678.00
2023-02-02T04:28:50.718Z,676.00
2023-02-02T04:29:50.734Z,675.00
2023-02-02T04:30:50.706Z,676.00
2023-02-02T04:31:50.754Z,673.00
2023-02-02T04:32:50.695Z,672.00
2023-02-02T04:33:50.680Z,671.00
2023-02-02T04:34:50.662Z,668.00
2023-02-02T04:35:50.653Z,669.00
2023-02-02T04:36:50.640Z,669.00
2023-02-02T04:37:50.641Z,669.00
2023-02-02T04:38:50.650Z,669.00
2023-02-02T04:39:50.611Z,675.00
2023-02-02T04:41:50.614Z,675.00
2023-02-02T04:42:50.603Z,675.00
2023-02-02T04:43:50.594Z,672.00
2023-02-02T04:44:50.567Z,673.00
2023-02-02T04:45:50.642Z,671.00
2023-02-02T04:46:50.555Z,669.00
2023-02-02T04:47:50.541Z,672.00
2023-02-02T04:48:50.536Z,669.00
2023-02-02T04:49:50.538Z,668.00
2023-02-02T04:50:50.520Z,667.00
2023-02-02T04:52:50.503Z,663.00
2023-02-02T04:53:50.493Z,665.00
2023-02-02T04:55:50.506Z,661.00
2023-02-02T04:56:50.468Z,658.00
2023-02-02T04:57:50.465Z,655.00
2023-02-02T04:58:50.454Z,656.00
2023-02-02T04:59:50.447Z,659.00
2023-02-02T05:00:50.469Z,660.00
2023-02-02T05:01:50.427Z,661.00
2023-02-02T05:02:50.417Z,660.00
2023-02-02T05:07:50.371Z,663.00
2023-02-02T05:08:50.361Z,661.00
2023-02-02T05:16:50.358Z,659.00
2023-02-02T05:28:50.190Z,657.00
2023-02-02T05:32:50.173Z,652.00
2023-02-02T06:22:49.980Z,628.00
2023-02-02T06:32:49.982Z,645.00
2023-02-02T06:40:49.579Z,647.00
2023-02-02T06:51:49.484Z,681.00
2023-02-02T06:52:50.040Z,697.00
2023-02-02T06:53:49.483Z,707.00
2023-02-02T06:54:52.719Z,723.00
2023-02-02T06:57:49.493Z,761.00
2023-02-02T07:02:49.562Z,915.00
2023-02-02T07:06:49.374Z,961.00
2023-02-02T07:07:49.502Z,965.00
2023-02-02T07:08:59.356Z,973.00
2023-02-02T07:12:49.351Z,982.00
2023-02-02T07:18:49.521Z,959.00
2023-02-02T07:24:49.537Z,952.00
2023-02-02T07:25:49.524Z,952.00
2023-02-02T07:28:49.506Z,951.00
2023-02-02T07:43:49.510Z,937.00
2023-02-02T07:53:49.032Z,947.00
2023-02-02T07:55:49.017Z,949.00
2023-02-02T08:00:49.048Z,951.00
2023-02-02T08:05:49.021Z,944.00
2023-02-02T08:07:49.028Z,933.00
2023-02-02T08:12:49.046Z,932.00
2023-02-02T08:15:49.157Z,926.00
2023-02-02T08:20:49.034Z,927.00
2023-02-02T08:25:49.035Z,906.00
2023-02-02T08:29:49.050Z,909.00
2023-02-02T08:40:48.541Z,984.00
2023-02-02T08:50:48.558Z,1178.00
2023-02-02T08:51:48.558Z,1190.00
2023-02-02T08:55:48.580Z,1250.00
2023-02-02T08:57:48.579Z,1098.00
2023-02-02T09:00:49.623Z,1062.00
2023-02-02T09:04:48.568Z,1035.00
2023-02-02T09:06:48.573Z,1026.00
2023-02-02T09:07:48.548Z,1080.00
2023-02-02T09:14:48.271Z,1199.00
2023-02-02T09:15:48.592Z,1224.00
2023-02-02T09:16:48.750Z,1248.00
2023-02-02T09:17:48.245Z,1263.00
2023-02-02T09:21:48.583Z,1319.00
2023-02-02T09:27:48.155Z,1384.00
2023-02-02T09:30:48.617Z,1410.00
2023-02-02T09:35:48.074Z,1462.00
2023-02-02T09:40:48.063Z,1477.00
2023-02-02T09:41:48.008Z,1290.00
2023-02-02T09:42:48.056Z,1267.00
2023-02-02T09:43:48.032Z,1286.00
2023-02-02T09:44:47.993Z,1306.00
2023-02-02T09:45:48.082Z,1307.00
2023-02-02T09:47:48.064Z,1218.00
2023-02-02T09:49:47.944Z,1219.00
2023-02-02T09:50:48.070Z,1276.00
2023-02-02T09:52:48.115Z,1462.00
2023-02-02T09:56:47.879Z,1553.00
2023-02-02T09:57:48.068Z,1569.00
2023-02-02T09:59:47.916Z,1646.00
2023-02-02T10:00:47.852Z,1658.00
2023-02-02T10:01:47.850Z,1665.00
2023-02-02T10:02:48.067Z,1679.00
2023-02-02T10:03:48.119Z,1693.00
2023-02-02T10:05:47.813Z,1260.00
2023-02-02T10:07:48.089Z,1202.00
2023-02-02T10:09:47.784Z,1171.00
2023-02-02T10:10:47.766Z,1194.00
2023-02-02T10:11:47.749Z,1192.00
2023-02-02T10:12:48.080Z,1324.00
2023-02-02T10:14:47.802Z,1593.00
2023-02-02T10:15:47.757Z,1623.00
2023-02-02T10:16:47.711Z,1629.00
2023-02-02T10:17:48.086Z,1642.00
2023-02-02T10:18:48.077Z,1651.00
2023-02-02T10:19:48.081Z,1663.00
2023-02-02T10:21:47.653Z,1696.00
2023-02-02T10:22:47.677Z,1702.00
2023-02-02T10:26:47.667Z,1744.00
2023-02-02T10:27:48.081Z,1753.00
2023-02-02T10:28:47.598Z,1767.00
2023-02-02T10:29:49.363Z,1776.00
2023-02-02T10:30:47.795Z,1791.00
2023-02-02T10:31:47.764Z,1798.00
2023-02-02T10:32:47.604Z,1821.00
2023-02-02T10:33:47.557Z,1837.00
2023-02-02T10:34:47.546Z,1856.00
2023-02-02T10:35:47.542Z,1747.00
2023-02-02T10:36:47.528Z,1363.00
2023-02-02T10:37:50.782Z,1395.00
2023-02-02T10:39:47.546Z,1631.00
2023-02-02T10:40:47.519Z,1729.00
2023-02-02T10:41:47.594Z,1757.00
2023-02-02T10:42:47.539Z,1787.00
2023-02-02T10:44:47.597Z,1858.00
2023-02-02T10:45:47.469Z,1873.00
2023-02-02T10:46:47.472Z,1895.00
2023-02-02T10:47:47.586Z,1905.00
2023-02-02T10:48:47.449Z,1930.00
2023-02-02T10:51:47.411Z,2010.00
2023-02-02T10:52:47.600Z,2027.00
2023-02-02T10:53:47.378Z,2033.00
2023-02-02T10:54:56.521Z,2068.00
2023-02-02T10:55:47.381Z,2072.00
2023-02-02T10:56:47.357Z,2085.00
2023-02-02T10:57:47.365Z,2101.00
2023-02-02T10:58:47.338Z,2118.00
2023-02-02T10:59:47.371Z,2134.00
2023-02-02T11:00:47.349Z,2155.00
2023-02-02T11:01:47.770Z,2169.00
2023-02-02T11:02:47.381Z,2193.00
2023-02-02T11:03:47.626Z,2197.00
2023-02-02T11:04:47.336Z,2224.00
2023-02-02T11:05:47.312Z,2234.00
2023-02-02T11:06:47.310Z,2254.00
2023-02-02T11:07:47.299Z,2266.00
2023-02-02T11:08:47.615Z,2276.00
2023-02-02T11:09:47.253Z,2299.00
2023-02-02T11:11:47.249Z,2322.00
2023-02-02T11:12:47.216Z,2343.00
2023-02-02T11:13:47.604Z,2366.00
2023-02-02T11:14:47.192Z,2388.00
2023-02-02T11:16:47.310Z,2431.00
2023-02-02T11:17:47.204Z,2443.00
2023-02-02T11:18:47.666Z,2459.00
2023-02-02T11:19:47.145Z,2487.00
2023-02-02T11:20:47.134Z,2496.00
2023-02-02T11:21:47.133Z,2499.00
2023-02-02T11:22:47.118Z,2512.00
2023-02-02T11:23:48.867Z,2527.00
2023-02-02T11:24:47.110Z,2538.00
2023-02-02T11:25:47.100Z,1665.00
2023-02-02T11:26:47.222Z,1312.00
2023-02-02T11:27:47.075Z,1270.00
2023-02-02T11:28:47.137Z,1166.00
2023-02-02T11:29:47.108Z,1072.00
2023-02-02T11:30:47.069Z,1021.00
2023-02-02T11:31:47.181Z,1096.00
2023-02-02T11:32:47.043Z,1122.00
2023-02-02T11:33:47.146Z,1252.00
2023-02-02T11:34:47.040Z,1558.00
2023-02-02T11:35:47.017Z,1909.00
2023-02-02T11:36:47.002Z,1947.00
2023-02-02T11:37:46.995Z,1934.00
2023-02-02T11:38:47.135Z,1927.00
2023-02-02T11:39:47.107Z,1924.00
2023-02-02T11:40:46.984Z,1929.00
2023-02-02T11:41:46.957Z,1930.00
2023-02-02T11:42:46.952Z,1964.00
2023-02-02T11:43:47.119Z,1992.00
2023-02-02T11:44:46.927Z,2001.00
2023-02-02T11:45:46.945Z,2012.00
2023-02-02T11:46:47.025Z,2014.00
2023-02-02T11:47:46.940Z,2030.00
2023-02-02T11:48:47.111Z,2053.00
2023-02-02T11:49:47.310Z,2078.00
2023-02-02T11:50:46.948Z,2098.00
2023-02-02T11:51:46.886Z,2122.00
2023-02-02T11:52:46.899Z,2131.00
2023-02-02T11:53:47.112Z,2143.00
2023-02-02T11:54:46.854Z,2158.00
2023-02-02T11:55:46.833Z,2165.00
2023-02-02T11:56:46.855Z,2202.00
2023-02-02T11:57:46.836Z,2224.00
2023-02-02T11:58:46.831Z,2239.00
2023-02-02T11:59:47.164Z,2249.00
2023-02-02T12:00:46.795Z,2283.00
2023-02-02T12:01:46.895Z,2298.00
2023-02-02T12:02:46.785Z,2316.00
2023-02-02T12:03:46.890Z,2329.00
2023-02-02T12:04:47.139Z,2347.00
2023-02-02T12:05:47.120Z,2366.00
2023-02-02T12:06:47.668Z,2380.00
2023-02-02T12:07:46.797Z,2411.00
2023-02-02T12:08:46.749Z,2449.00
2023-02-02T12:09:48.116Z,2466.00
2023-02-02T12:10:47.155Z,2496.00
2023-02-02T12:11:46.719Z,2248.00
2023-02-02T12:12:46.677Z,1792.00
2023-02-02T12:14:47.137Z,1526.00
2023-02-02T12:15:46.653Z,1383.00
2023-02-02T12:16:46.661Z,1492.00
2023-02-02T12:18:46.662Z,2238.00
2023-02-02T12:19:46.628Z,2236.00
2023-02-02T12:20:46.604Z,2240.00
2023-02-02T12:21:46.613Z,2249.00
2023-02-02T12:22:46.656Z,2268.00
2023-02-02T12:23:46.607Z,2260.00
2023-02-02T12:24:46.611Z,2239.00
2023-02-02T12:25:46.559Z,2228.00
2023-02-02T12:26:46.608Z,2223.00
2023-02-02T12:27:46.560Z,1713.00
2023-02-02T12:28:46.541Z,1655.00
2023-02-02T12:29:46.531Z,1409.00
2023-02-02T12:30:46.651Z,1288.00
2023-02-02T12:31:46.628Z,1315.00
2023-02-02T12:32:46.501Z,1292.00
2023-02-02T12:33:46.495Z,1175.00
2023-02-02T12:34:46.636Z,1378.00
2023-02-02T12:35:46.474Z,1363.00
2023-02-02T12:36:46.644Z,1692.00
2023-02-02T12:37:46.463Z,1774.00
2023-02-02T12:38:46.471Z,1800.00
2023-02-02T12:39:46.441Z,1809.00
2023-02-02T12:40:46.635Z,1818.00
2023-02-02T12:41:46.424Z,1811.00
2023-02-02T12:42:46.414Z,1802.00
2023-02-02T12:43:46.635Z,1799.00
2023-02-02T12:44:46.409Z,1808.00
2023-02-02T12:45:46.426Z,1814.00
2023-02-02T12:46:46.394Z,1816.00
2023-02-02T12:47:46.381Z,1816.00
2023-02-02T12:48:46.639Z,1810.00
2023-02-02T12:49:46.639Z,1816.00
2023-02-02T12:50:46.375Z,1811.00
2023-02-02T12:51:46.356Z,1806.00
2023-02-02T12:52:46.356Z,1794.00
2023-02-02T12:53:46.324Z,1794.00
2023-02-02T12:54:49.293Z,1794.00
2023-02-02T12:55:46.303Z,1777.00
2023-02-02T12:56:46.290Z,1764.00
2023-02-02T12:57:46.287Z,1784.00
2023-02-02T12:58:46.287Z,1778.00
2023-02-02T12:59:46.270Z,1772.00
2023-02-02T13:00:46.698Z,1769.00
2023-02-02T13:01:46.268Z,1772.00
2023-02-02T13:02:46.265Z,1768.00
2023-02-02T13:03:46.270Z,1771.00
2023-02-02T13:04:46.226Z,1766.00
2023-02-02T13:05:46.650Z,1765.00
2023-02-02T13:06:46.201Z,1763.00
2023-02-02T13:07:46.209Z,1756.00
2023-02-02T13:08:46.187Z,1750.00
2023-02-02T13:09:46.175Z,1753.00
2023-02-02T13:10:46.689Z,1757.00
2023-02-02T13:11:46.175Z,1755.00
2023-02-02T13:12:46.159Z,1750.00
2023-02-02T13:13:46.139Z,1750.00
2023-02-02T13:14:46.133Z,1734.00
2023-02-02T13:15:46.153Z,1735.00
2023-02-02T13:16:46.182Z,1740.00
2023-02-02T13:17:46.134Z,1741.00
2023-02-02T13:18:46.090Z,1740.00
2023-02-02T13:19:46.091Z,1740.00
2023-02-02T13:20:46.074Z,1737.00
2023-02-02T13:21:46.071Z,1736.00
2023-02-02T13:22:46.060Z,1731.00
2023-02-02T13:23:46.051Z,1729.00
2023-02-02T13:24:46.041Z,1729.00
2023-02-02T13:25:46.027Z,1732.00
2023-02-02T13:26:46.172Z,1732.00
2023-02-02T13:27:46.011Z,1731.00
2023-02-02T13:28:46.009Z,1729.00
2023-02-02T13:29:47.953Z,1729.00
2023-02-02T13:30:46.131Z,1724.00
2023-02-02T13:31:46.083Z,1724.00
2023-02-02T13:32:45.975Z,1721.00
2023-02-02T13:33:45.956Z,1715.00
2023-02-02T13:34:45.953Z,1709.00
2023-02-02T13:35:45.941Z,1706.00
2023-02-02T13:36:46.157Z,1700.00
2023-02-02T13:37:45.936Z,1698.00
2023-02-02T13:38:45.944Z,1698.00
2023-02-02T13:39:45.917Z,1693.00
2023-02-02T13:40:45.906Z,1685.00
2023-02-02T13:41:45.901Z,1678.00
2023-02-02T13:42:46.188Z,1674.00
2023-02-02T13:43:45.869Z,1674.00
2023-02-02T13:44:45.884Z,1670.00
2023-02-02T13:45:45.950Z,1662.00
2023-02-02T13:46:45.902Z,1668.00
2023-02-02T13:47:45.841Z,1665.00
2023-02-02T13:48:45.828Z,1658.00
2023-02-02T13:49:45.840Z,1653.00
2023-02-02T13:50:45.846Z,1652.00
2023-02-02T13:51:46.167Z,1652.00
2023-02-02T13:52:45.795Z,1652.00
2023-02-02T13:53:45.788Z,1654.00
2023-02-02T13:54:45.966Z,1651.00
2023-02-02T13:55:45.776Z,1652.00
2023-02-02T13:56:46.167Z,1654.00
2023-02-02T13:57:45.766Z,1653.00
2023-02-02T13:58:45.779Z,1649.00
2023-02-02T14:01:46.231Z,1637.00
2023-02-02T14:06:46.199Z,1620.00
2023-02-02T14:07:45.694Z,1618.00
2023-02-02T14:11:45.703Z,1611.00
2023-02-02T14:23:45.520Z,1592.00
2023-02-02T14:30:45.686Z,1567.00
2023-02-02T14:31:45.549Z,1566.00
2023-02-02T14:32:45.491Z,1567.00
2023-02-02T14:33:45.435Z,1562.00
2023-02-02T14:34:45.457Z,1558.00
2023-02-02T14:35:46.443Z,1550.00
2023-02-02T14:36:45.449Z,1547.00
2023-02-02T14:37:46.037Z,1546.00
2023-02-02T14:38:45.410Z,1549.00
2023-02-02T14:39:45.406Z,1549.00
2023-02-02T14:40:45.400Z,1552.00
2023-02-02T14:41:45.363Z,1548.00
2023-02-02T14:42:45.375Z,1544.00
2023-02-02T14:43:45.351Z,1542.00
2023-02-02T14:44:45.340Z,1543.00
2023-02-02T14:45:45.332Z,1542.00
2023-02-02T14:46:45.343Z,1542.00
2023-02-02T14:47:45.379Z,1541.00
2023-02-02T14:48:45.313Z,1536.00
2023-02-02T14:49:45.296Z,1533.00
2023-02-02T14:50:45.286Z,1533.00
2023-02-02T14:51:45.346Z,1533.00
2023-02-02T14:53:45.259Z,1530.00
2023-02-02T14:54:45.254Z,1528.00
2023-02-02T14:55:45.241Z,1520.00
2023-02-02T14:56:45.233Z,1520.00
2023-02-02T14:57:45.223Z,1519.00
2023-02-02T14:58:45.218Z,1520.00
2023-02-02T14:59:45.210Z,1521.00
2023-02-02T15:00:45.204Z,1521.00
2023-02-02T15:01:45.272Z,1515.00
2023-02-02T15:02:45.260Z,1512.00
2023-02-02T15:03:45.170Z,1510.00
2023-02-02T15:04:45.196Z,1507.00
2023-02-02T15:05:45.157Z,1511.00
2023-02-02T15:06:45.147Z,1510.00
2023-02-02T15:07:45.137Z,1512.00
2023-02-02T15:09:45.132Z,1505.00
2023-02-02T15:10:45.112Z,1499.00
2023-02-02T15:11:45.102Z,1496.00
2023-02-02T15:12:45.110Z,1494.00
2023-02-02T15:13:45.120Z,1495.00
2023-02-02T15:14:45.076Z,1492.00
2023-02-02T15:15:45.089Z,1487.00
2023-02-02T15:16:45.067Z,1480.00
2023-02-02T15:17:45.064Z,1482.00
2023-02-02T15:18:45.088Z,1481.00
2023-02-02T15:19:45.041Z,1475.00
2023-02-02T15:20:45.028Z,1477.00
2023-02-02T15:21:45.167Z,1478.00
2023-02-02T15:22:45.011Z,1479.00
2023-02-02T15:23:45.025Z,1472.00
2023-02-02T15:24:44.992Z,1466.00
2023-02-02T15:25:44.983Z,1462.00
2023-02-02T15:26:45.044Z,1462.00
2023-02-02T15:27:56.228Z,1460.00
2023-02-02T15:28:44.965Z,1460.00
2023-02-02T15:29:44.943Z,1460.00
2023-02-02T15:30:44.983Z,1456.00
2023-02-02T15:31:45.085Z,1453.00
2023-02-02T15:32:44.922Z,1447.00
2023-02-02T15:34:44.928Z,1443.00
2023-02-02T15:35:44.895Z,1441.00
2023-02-02T15:36:44.893Z,1441.00
2023-02-02T15:37:44.918Z,1436.00
2023-02-02T15:38:44.869Z,1434.00
2023-02-02T15:39:45.211Z,1432.00
2023-02-02T15:40:44.853Z,1431.00
2023-02-02T15:41:44.850Z,1432.00
2023-02-02T15:42:44.847Z,1433.00
2023-02-02T15:43:44.835Z,1432.00
2023-02-02T15:44:44.808Z,1429.00
2023-02-02T15:45:44.815Z,1430.00
2023-02-02T15:46:44.860Z,1427.00
2023-02-02T15:47:44.809Z,1429.00
2023-02-02T15:48:44.789Z,1429.00
2023-02-02T15:49:44.771Z,1423.00
2023-02-02T15:50:44.799Z,1422.00
2023-02-02T15:51:45.217Z,1422.00
2023-02-02T15:52:46.335Z,1421.00
2023-02-02T15:53:44.736Z,1418.00
2023-02-02T15:54:44.738Z,1405.00
2023-02-02T15:55:44.725Z,1401.00
2023-02-02T15:56:44.710Z,1402.00
2023-02-02T15:57:44.721Z,1405.00
2023-02-02T15:58:44.691Z,1399.00
2023-02-02T15:59:44.683Z,1396.00
2023-02-02T16:00:44.784Z,1394.00
2023-02-02T16:01:44.726Z,1389.00
2023-02-02T16:02:44.744Z,1388.00
2023-02-02T16:03:44.648Z,1389.00
2023-02-02T16:04:44.653Z,1389.00
2023-02-02T16:05:44.632Z,1388.00
2023-02-02T16:06:44.645Z,1385.00
2023-02-02T16:07:48.515Z,1373.00
2023-02-02T16:08:44.607Z,1373.00
2023-02-02T16:09:44.601Z,1376.00
2023-02-02T16:10:46.561Z,1376.00
2023-02-02T16:11:44.726Z,1375.00
2023-02-02T16:12:44.570Z,1372.00
2023-02-02T16:13:44.720Z,1373.00
2023-02-02T16:14:44.554Z,1370.00
2023-02-02T16:15:44.548Z,1367.00
2023-02-02T16:16:47.157Z,1369.00
2023-02-02T16:17:44.539Z,1373.00
2023-02-02T16:18:44.524Z,1371.00
2023-02-02T16:19:44.520Z,1373.00
2023-02-02T16:20:44.507Z,1373.00
2023-02-02T16:21:44.496Z,1370.00
2023-02-02T16:22:46.753Z,1366.00
2023-02-02T16:23:44.481Z,1361.00
2023-02-02T16:24:44.493Z,1356.00
2023-02-02T16:25:44.473Z,1356.00
2023-02-02T16:26:44.522Z,1352.00
2023-02-02T16:27:44.437Z,1351.00
2023-02-02T16:28:46.596Z,1352.00
2023-02-02T16:29:44.425Z,1354.00
2023-02-02T16:30:44.449Z,1349.00
2023-02-02T16:31:44.489Z,1342.00
2023-02-02T16:32:44.411Z,1343.00
2023-02-02T16:33:44.402Z,1343.00
2023-02-02T16:34:46.336Z,1342.00
2023-02-02T16:35:44.371Z,1338.00
2023-02-02T16:36:44.360Z,1337.00
2023-02-02T16:37:44.379Z,1339.00
2023-02-02T16:38:44.370Z,1337.00
2023-02-02T16:39:44.366Z,1338.00
2023-02-02T16:40:44.337Z,1331.00
2023-02-02T16:41:44.383Z,1327.00
2023-02-02T16:42:44.318Z,1326.00
2023-02-02T16:43:44.299Z,1320.00
2023-02-02T16:44:44.292Z,1323.00
2023-02-02T16:45:44.327Z,1317.00
2023-02-02T16:46:44.279Z,1312.00
2023-02-02T16:47:44.275Z,1315.00
2023-02-02T16:48:44.272Z,1315.00
2023-02-02T16:49:44.249Z,1316.00
2023-02-02T16:50:44.250Z,1319.00
2023-02-02T16:51:44.233Z,1318.00
2023-02-02T16:52:44.221Z,1319.00
2023-02-02T16:53:44.217Z,1317.00
2023-02-02T16:54:44.235Z,1319.00
2023-02-02T16:55:50.977Z,1309.00
2023-02-02T16:56:44.207Z,1305.00
2023-02-02T16:57:44.182Z,1301.00
2023-02-02T16:58:44.219Z,1297.00
2023-02-02T16:59:44.185Z,1294.00
2023-02-02T17:00:44.192Z,1290.00
2023-02-02T17:01:44.210Z,1289.00
2023-02-02T17:02:44.245Z,1289.00
2023-02-02T17:03:44.133Z,1284.00
2023-02-02T17:04:44.123Z,1280.00
2023-02-02T17:05:44.114Z,1280.00
2023-02-02T17:06:52.389Z,1279.00
2023-02-02T17:07:44.102Z,1277.00
2023-02-02T17:08:44.086Z,1271.00
2023-02-02T17:09:44.085Z,1269.00
2023-02-02T17:10:44.121Z,1265.00
2023-02-02T17:11:44.056Z,1262.00
2023-02-02T17:12:44.070Z,1262.00
2023-02-02T17:13:44.093Z,1265.00
2023-02-02T17:14:44.032Z,1268.00
2023-02-02T17:15:44.034Z,1263.00
2023-02-02T17:16:44.076Z,1258.00
2023-02-02T17:17:44.005Z,1254.00
2023-02-02T17:18:44.029Z,1253.00
2023-02-02T17:19:43.996Z,1254.00
2023-02-02T17:20:44.015Z,1254.00
2023-02-02T17:21:43.971Z,1258.00
2023-02-02T17:22:43.965Z,1262.00
2023-02-02T17:23:43.957Z,1270.00
2023-02-02T17:24:43.946Z,1274.00
2023-02-02T17:25:43.958Z,1269.00
2023-02-02T17:26:43.968Z,1262.00
2023-02-02T17:27:43.920Z,1259.00
2023-02-02T17:28:43.915Z,1257.00
2023-02-02T17:29:43.907Z,1256.00
2023-02-02T17:30:44.011Z,1258.00
2023-02-02T17:31:44.123Z,1255.00
2023-02-02T17:32:43.883Z,1254.00
2023-02-02T17:33:43.877Z,1250.00
2023-02-02T17:34:43.857Z,1251.00
2023-02-02T17:35:53.547Z,1250.00
2023-02-02T17:36:43.844Z,1251.00
2023-02-02T17:37:43.842Z,1249.00
2023-02-02T17:38:43.826Z,1246.00
2023-02-02T17:39:43.814Z,1244.00
2023-02-02T17:40:43.809Z,1243.00
2023-02-02T17:41:43.838Z,1240.00
2023-02-02T17:42:43.817Z,1240.00
2023-02-02T17:43:43.780Z,1241.00
2023-02-02T17:44:43.773Z,1238.00
2023-02-02T17:45:43.763Z,1243.00
2023-02-02T17:46:43.761Z,1239.00